Terminal Aerodrome Forecast
Issued by NWS Mt. Holly, NJ

Home | Current Version | Previous Version | Text Only | Print | Product List | Glossary On
Versions: 1 2 3 4 5 6 7 8 9 10 11 12 13 14 15
000
FTUS41 KPHI 280000 AAA
TAFACY
TAF AMD
KACY 280059Z 2801/2824 21008KT P6SM BKN200
     FM280400 18010KT P6SM -SHRA BKN050 OVC100
     FM280900 21003KT 4SM BR BKN100
     FM281300 26016G25KT P6SM BKN040
     FM282300 29008KT P6SM SCT200=

USA.gov is the U.S. government's official web portal to all federal, state and local government web resources and services.